createdAt,value
2022-10-06T00:01:39.108Z,46.26
2022-10-06T00:04:07.177Z,46.25
2022-10-06T00:06:36.222Z,46.26
2022-10-06T00:09:04.642Z,46.61
2022-10-06T00:11:36.432Z,46.91
2022-10-06T00:14:06.231Z,47.13
2022-10-06T00:16:34.254Z,46.91
2022-10-06T00:19:02.635Z,46.15
2022-10-06T00:21:30.650Z,46.07
2022-10-06T00:23:58.689Z,46.31
2022-10-06T00:26:27.198Z,46.52
2022-10-06T00:28:56.594Z,46.52
2022-10-06T00:31:24.690Z,46.91
2022-10-06T00:33:52.875Z,46.80
2022-10-06T00:36:21.394Z,47.17
2022-10-06T00:38:50.967Z,47.09
2022-10-06T00:41:19.171Z,46.89
2022-10-06T00:43:49.559Z,47.26
2022-10-06T00:46:22.233Z,47.34
2022-10-06T00:48:54.052Z,47.66
2022-10-06T00:51:25.513Z,47.49
2022-10-06T00:53:53.571Z,47.60
2022-10-06T00:56:21.601Z,47.03
2022-10-06T00:58:54.699Z,46.30
2022-10-06T01:01:24.312Z,46.10
2022-10-06T01:03:58.530Z,46.24
2022-10-06T01:06:26.701Z,46.77
2022-10-06T01:08:55.847Z,46.73
2022-10-06T01:11:23.846Z,46.64
2022-10-06T01:13:51.886Z,46.58
2022-10-06T01:16:22.638Z,46.62
2022-10-06T01:18:52.074Z,46.67
2022-10-06T01:21:24.559Z,46.77
2022-10-06T01:23:54.031Z,46.80
2022-10-06T01:26:25.188Z,46.90
2022-10-06T01:28:55.048Z,46.90
2022-10-06T01:31:23.074Z,46.80
2022-10-06T01:34:02.740Z,46.90
2022-10-06T01:36:31.100Z,47.08
2022-10-06T01:39:00.493Z,46.98
2022-10-06T01:41:30.472Z,47.15
2022-10-06T01:43:59.260Z,47.32
2022-10-06T01:46:30.215Z,47.50
2022-10-06T01:48:58.407Z,47.59
2022-10-06T01:51:26.626Z,47.57
2022-10-06T01:53:55.781Z,47.99
2022-10-06T01:56:25.297Z,48.25
2022-10-06T01:58:54.380Z,48.34
2022-10-06T02:01:22.516Z,48.38
2022-10-06T02:03:50.533Z,48.59
2022-10-06T02:06:18.670Z,49.11
2022-10-06T02:08:47.321Z,49.01
2022-10-06T02:11:15.390Z,49.33
2022-10-06T02:13:45.675Z,49.53
2022-10-06T02:16:14.169Z,49.89
2022-10-06T02:18:44.087Z,50.22
2022-10-06T02:21:17.721Z,50.33
2022-10-06T02:23:45.810Z,50.50
2022-10-06T02:26:16.402Z,50.50
2022-10-06T02:28:46.860Z,50.82
2022-10-06T02:31:19.076Z,50.29
2022-10-06T02:33:49.779Z,49.47
2022-10-06T02:36:19.855Z,49.37
2022-10-06T02:38:49.445Z,49.32
2022-10-06T02:41:17.929Z,48.91
2022-10-06T02:43:48.229Z,48.53
2022-10-06T02:46:20.252Z,48.24
2022-10-06T02:48:51.902Z,48.32
2022-10-06T02:51:21.112Z,48.32
2022-10-06T02:53:49.855Z,48.16
2022-10-06T02:56:20.622Z,48.09
2022-10-06T02:58:50.685Z,48.08
2022-10-06T03:01:29.326Z,48.16
2022-10-06T03:04:05.488Z,48.14
2022-10-06T03:06:33.539Z,48.01
2022-10-06T03:09:28.671Z,48.22
2022-10-06T03:11:57.529Z,48.44
2022-10-06T03:14:36.342Z,48.61
2022-10-06T03:17:05.345Z,47.99
2022-10-06T03:19:35.446Z,47.84
2022-10-06T03:22:03.569Z,47.66
2022-10-06T03:24:41.867Z,47.51
2022-10-06T03:27:09.973Z,47.44
2022-10-06T03:29:39.354Z,47.24
2022-10-06T03:32:07.538Z,47.44
2022-10-06T03:34:37.761Z,47.62
2022-10-06T03:37:11.781Z,47.99
2022-10-06T03:39:40.174Z,47.92
2022-10-06T03:42:09.196Z,48.09
2022-10-06T03:44:37.234Z,48.37
2022-10-06T03:47:14.707Z,48.86
2022-10-06T03:49:45.601Z,48.66
2022-10-06T03:52:15.484Z,48.42
2022-10-06T03:54:43.555Z,48.39
2022-10-06T03:57:12.063Z,48.55
2022-10-06T03:59:42.809Z,48.65
2022-10-06T04:02:14.394Z,48.85
2022-10-06T04:04:42.754Z,49.18
2022-10-06T04:07:12.351Z,49.23
2022-10-06T04:09:41.124Z,49.38
2022-10-06T04:12:10.993Z,49.43
2022-10-06T04:14:40.698Z,49.67
2022-10-06T04:17:09.577Z,49.88
2022-10-06T04:19:41.973Z,50.21
2022-10-06T04:22:10.050Z,50.26
2022-10-06T04:24:38.680Z,50.57
2022-10-06T04:27:24.577Z,50.45
2022-10-06T04:30:16.927Z,50.69
2022-10-06T04:32:45.719Z,50.55
2022-10-06T04:35:16.171Z,50.60
2022-10-06T04:37:47.063Z,50.58
2022-10-06T04:40:16.766Z,50.44
2022-10-06T04:42:45.577Z,50.35
2022-10-06T04:45:16.224Z,50.42
2022-10-06T04:47:45.255Z,50.28
2022-10-06T04:50:17.395Z,50.69
2022-10-06T04:53:06.159Z,50.93
2022-10-06T04:55:36.814Z,50.48
2022-10-06T04:58:05.459Z,50.52
2022-10-06T05:00:33.648Z,50.65
2022-10-06T05:03:02.014Z,50.58
2022-10-06T05:05:33.994Z,50.80
2022-10-06T05:08:02.354Z,50.76
2022-10-06T05:10:30.553Z,50.91
2022-10-06T05:12:59.354Z,51.07
2022-10-06T05:15:29.188Z,51.01
2022-10-06T05:17:57.519Z,51.16
2022-10-06T05:20:25.619Z,51.61
2022-10-06T05:23:00.570Z,51.61
2022-10-06T05:25:28.968Z,51.87
2022-10-06T05:27:56.944Z,51.74
2022-10-06T05:30:26.835Z,51.85
2022-10-06T05:32:55.070Z,52.02
2022-10-06T05:35:23.991Z,51.99
2022-10-06T05:37:52.027Z,52.16
2022-10-06T05:40:23.980Z,52.21
2022-10-06T05:42:52.025Z,52.31
2022-10-06T05:45:22.903Z,52.37
2022-10-06T05:47:51.117Z,52.54
2022-10-06T05:50:20.694Z,52.73
2022-10-06T05:52:49.198Z,52.82
2022-10-06T05:55:17.252Z,53.04
2022-10-06T05:58:49.581Z,53.04
2022-10-06T06:01:20.693Z,53.31
2022-10-06T06:03:50.684Z,53.31
2022-10-06T06:06:43.223Z,53.70
2022-10-06T06:09:31.045Z,54.33
2022-10-06T06:12:05.005Z,54.89
2022-10-06T06:15:08.759Z,55.09
2022-10-06T06:17:48.044Z,55.08
2022-10-06T06:20:55.643Z,55.10
2022-10-06T06:23:23.790Z,55.31
2022-10-06T06:26:02.261Z,55.36
2022-10-06T06:28:32.053Z,55.35
2022-10-06T06:31:03.677Z,55.69
2022-10-06T06:33:33.605Z,55.86
2022-10-06T06:36:05.708Z,56.15
2022-10-06T06:38:33.802Z,56.13
2022-10-06T06:41:01.966Z,56.24
2022-10-06T06:43:30.472Z,56.22
2022-10-06T06:46:25.393Z,56.32
2022-10-06T06:49:26.735Z,56.22
2022-10-06T06:51:59.190Z,55.97
2022-10-06T06:54:31.022Z,55.41
2022-10-06T06:57:04.648Z,55.30
2022-10-06T06:59:34.109Z,55.38
2022-10-06T07:02:03.431Z,55.75
2022-10-06T07:04:37.464Z,55.89
2022-10-06T07:07:07.971Z,56.02
2022-10-06T07:09:39.216Z,55.88
2022-10-06T07:12:12.572Z,55.87
2022-10-06T07:15:00.665Z,55.82
2022-10-06T07:17:49.029Z,55.88
2022-10-06T07:20:37.247Z,55.86
2022-10-06T07:23:23.117Z,55.75
2022-10-06T07:25:54.175Z,55.87
2022-10-06T07:28:22.826Z,55.76
2022-10-06T07:30:52.757Z,55.77
2022-10-06T07:33:22.816Z,55.95
2022-10-06T07:35:55.133Z,55.98
2022-10-06T07:38:26.195Z,55.61
2022-10-06T07:41:14.926Z,55.95
2022-10-06T07:43:49.345Z,55.55
2022-10-06T07:46:19.926Z,55.32
2022-10-06T07:49:05.150Z,55.32
2022-10-06T07:51:34.578Z,55.25
2022-10-06T07:54:04.204Z,55.43
2022-10-06T07:56:55.174Z,55.85
2022-10-06T07:59:32.661Z,55.66
2022-10-06T08:02:00.763Z,55.71
2022-10-06T08:04:28.926Z,55.77
2022-10-06T08:06:59.779Z,55.78
2022-10-06T08:09:30.711Z,55.68
2022-10-06T08:12:25.069Z,55.54
2022-10-06T08:14:53.454Z,55.86
2022-10-06T08:17:22.244Z,55.86
2022-10-06T08:19:50.841Z,55.89
2022-10-06T08:22:29.379Z,56.05
2022-10-06T08:25:05.762Z,56.19
2022-10-06T08:27:35.078Z,56.12
2022-10-06T08:30:12.430Z,56.20
2022-10-06T08:32:42.830Z,56.45
2022-10-06T08:35:21.565Z,56.40
2022-10-06T08:37:51.455Z,56.34
2022-10-06T08:40:21.532Z,56.09
2022-10-06T08:42:52.322Z,56.25
2022-10-06T08:45:35.003Z,56.38
2022-10-06T08:48:07.386Z,56.25
2022-10-06T08:50:38.939Z,56.24
2022-10-06T08:53:15.643Z,56.42
2022-10-06T08:55:51.529Z,56.22
2022-10-06T08:58:34.813Z,56.01
2022-10-06T09:01:14.392Z,56.11
2022-10-06T09:03:47.803Z,56.16
2022-10-06T09:06:26.357Z,55.68
2022-10-06T09:09:00.649Z,55.45
2022-10-06T09:11:37.688Z,55.22
2022-10-06T09:14:07.682Z,55.06
2022-10-06T09:16:39.621Z,54.92
2022-10-06T09:19:12.542Z,54.63
2022-10-06T09:21:43.413Z,54.44
2022-10-06T09:24:17.690Z,54.30
2022-10-06T09:26:48.094Z,54.20
2022-10-06T09:29:16.653Z,53.84
2022-10-06T09:31:47.749Z,54.04
2022-10-06T09:34:25.370Z,53.90
2022-10-06T09:37:02.072Z,53.63
2022-10-06T09:39:36.788Z,53.28
2022-10-06T09:42:08.001Z,53.12
2022-10-06T09:44:44.627Z,53.11
2022-10-06T09:47:52.239Z,53.07
2022-10-06T09:50:22.808Z,53.29
2022-10-06T09:53:16.369Z,53.38
2022-10-06T09:55:53.774Z,53.58
2022-10-06T09:58:31.667Z,53.41
2022-10-06T10:01:03.770Z,52.35
2022-10-06T10:04:15.616Z,52.24
2022-10-06T10:06:40.688Z,52.03
2022-10-06T10:09:22.421Z,51.21
2022-10-06T10:12:28.316Z,51.00
2022-10-06T10:14:59.585Z,50.33
2022-10-06T10:17:58.906Z,49.30
2022-10-06T10:20:41.118Z,49.49
2022-10-06T10:23:27.271Z,49.19
2022-10-06T10:26:09.720Z,49.04
2022-10-06T10:29:15.890Z,48.83
2022-10-06T10:31:55.790Z,49.04
2022-10-06T10:35:00.697Z,48.74
2022-10-06T10:37:36.930Z,48.75
2022-10-06T10:40:13.122Z,49.16
2022-10-06T10:42:44.951Z,48.35
2022-10-06T10:45:18.904Z,48.66
2022-10-06T10:47:51.017Z,49.30
2022-10-06T10:50:26.411Z,49.68
2022-10-06T10:52:57.407Z,50.37
2022-10-06T10:55:29.326Z,50.67
2022-10-06T10:58:00.562Z,50.99
2022-10-06T11:00:33.037Z,51.20
2022-10-06T11:03:02.461Z,51.49
2022-10-06T11:05:40.184Z,51.62
2022-10-06T11:08:12.119Z,51.84
2022-10-06T11:10:46.592Z,50.82
2022-10-06T11:13:18.911Z,51.21
2022-10-06T11:15:54.632Z,50.48
2022-10-06T11:18:40.880Z,50.83
2022-10-06T11:21:14.967Z,50.10
2022-10-06T11:23:53.535Z,50.57
2022-10-06T11:26:35.827Z,50.74
2022-10-06T11:29:07.900Z,51.10
2022-10-06T11:31:40.659Z,51.38
2022-10-06T11:34:17.660Z,50.75
2022-10-06T11:36:48.042Z,50.54
2022-10-06T11:39:28.944Z,51.11
2022-10-06T11:41:59.461Z,50.76
2022-10-06T11:44:32.438Z,49.87
2022-10-06T11:47:09.381Z,49.44
2022-10-06T11:49:54.101Z,49.14
2022-10-06T11:52:55.400Z,49.00
2022-10-06T11:55:27.412Z,48.83
2022-10-06T11:58:41.411Z,48.30
2022-10-06T12:01:10.290Z,47.75
2022-10-06T12:07:06.572Z,47.53
2022-10-06T12:09:52.702Z,47.01
2022-10-06T12:13:06.898Z,46.74
2022-10-06T12:21:37.258Z,46.86
2022-10-06T12:24:18.899Z,46.16
2022-10-06T12:26:54.106Z,45.80
2022-10-06T12:29:42.957Z,45.58
2022-10-06T12:32:34.855Z,46.68
2022-10-06T12:35:07.513Z,46.87
2022-10-06T12:37:54.479Z,46.68
2022-10-06T12:41:02.358Z,47.36
2022-10-06T12:43:38.202Z,45.82
2022-10-06T12:46:16.547Z,46.06
2022-10-06T12:48:53.637Z,46.44
2022-10-06T12:51:30.487Z,47.21
2022-10-06T12:54:04.447Z,47.45
2022-10-06T12:56:39.112Z,46.68
2022-10-06T12:59:21.553Z,46.89
2022-10-06T13:01:51.355Z,47.05
2022-10-06T13:04:37.810Z,47.51
2022-10-06T13:07:11.225Z,47.91
2022-10-06T13:09:41.853Z,48.65
2022-10-06T13:12:30.937Z,48.81
2022-10-06T13:15:20.485Z,48.80
2022-10-06T13:18:07.259Z,48.28
2022-10-06T13:20:37.907Z,48.24
2022-10-06T13:23:25.984Z,47.97
2022-10-06T13:25:58.446Z,47.83
2022-10-06T13:32:22.876Z,48.39
2022-10-06T13:34:51.070Z,48.67
2022-10-06T13:37:27.931Z,46.66
2022-10-06T13:39:56.865Z,46.18
2022-10-06T13:42:25.615Z,46.44
2022-10-06T13:45:00.412Z,46.42
2022-10-06T13:47:48.340Z,46.89
2022-10-06T13:50:21.197Z,47.14
2022-10-06T13:52:50.837Z,46.85
2022-10-06T13:55:33.905Z,47.46
2022-10-06T13:58:11.110Z,46.88
2022-10-06T14:01:04.772Z,47.29
2022-10-06T14:06:07.959Z,46.21
2022-10-06T14:08:36.718Z,45.59
2022-10-06T14:11:06.250Z,45.40
2022-10-06T14:13:46.917Z,45.30
2022-10-06T14:16:20.819Z,44.80
2022-10-06T14:21:34.029Z,44.81
2022-10-06T14:24:06.122Z,44.84
2022-10-06T14:26:39.923Z,45.32
2022-10-06T14:29:08.724Z,45.56
2022-10-06T14:31:36.932Z,45.48
2022-10-06T14:34:14.508Z,45.50
2022-10-06T14:36:47.389Z,45.94
2022-10-06T14:39:19.535Z,46.22
2022-10-06T14:41:47.807Z,46.58
2022-10-06T14:44:21.589Z,46.44
2022-10-06T14:46:50.178Z,46.36
2022-10-06T14:49:27.715Z,46.49
2022-10-06T14:51:56.949Z,46.37
2022-10-06T14:54:26.949Z,46.84
2022-10-06T14:56:56.292Z,46.92
2022-10-06T14:59:28.645Z,47.14
2022-10-06T15:01:59.756Z,47.25
2022-10-06T15:04:29.389Z,47.47
2022-10-06T15:07:15.108Z,47.72
2022-10-06T15:09:44.073Z,47.47
2022-10-06T15:12:12.102Z,47.93
2022-10-06T15:14:40.237Z,48.32
2022-10-06T15:17:08.327Z,48.23
2022-10-06T15:19:38.021Z,48.58
2022-10-06T15:22:07.336Z,48.23
2022-10-06T15:24:35.513Z,48.17
2022-10-06T15:27:24.718Z,48.19
2022-10-06T15:29:57.448Z,48.24
2022-10-06T15:32:37.045Z,47.85
2022-10-06T15:35:22.615Z,47.73
2022-10-06T15:37:50.916Z,48.56
2022-10-06T15:40:22.387Z,48.65
2022-10-06T15:42:51.222Z,49.25
2022-10-06T15:45:19.425Z,48.83
2022-10-06T15:47:48.932Z,47.39
2022-10-06T15:50:19.142Z,46.57
2022-10-06T15:52:58.768Z,46.81
2022-10-06T15:55:26.877Z,47.05
2022-10-06T15:57:55.199Z,46.50
2022-10-06T16:00:23.239Z,45.70
2022-10-06T16:02:52.767Z,44.50
2022-10-06T16:05:46.182Z,44.09
2022-10-06T16:08:14.343Z,44.58
2022-10-06T16:10:42.552Z,45.75
2022-10-06T16:13:10.651Z,46.48
2022-10-06T16:15:38.703Z,46.28
2022-10-06T16:18:07.024Z,46.30
2022-10-06T16:20:36.487Z,46.60
2022-10-06T16:23:04.525Z,46.40
2022-10-06T16:25:32.618Z,46.94
2022-10-06T16:28:01.011Z,47.18
2022-10-06T16:30:31.168Z,48.04
2022-10-06T16:33:01.528Z,48.28
2022-10-06T16:35:30.136Z,48.34
2022-10-06T16:38:03.432Z,48.65
2022-10-06T16:40:31.655Z,49.04
2022-10-06T16:43:04.835Z,48.93
2022-10-06T16:45:48.658Z,49.36
2022-10-06T16:48:18.184Z,48.68
2022-10-06T16:51:00.246Z,48.12
2022-10-06T16:53:37.668Z,48.14
2022-10-06T16:56:06.102Z,47.84
2022-10-06T16:58:41.991Z,47.97
2022-10-06T17:01:10.339Z,48.18
2022-10-06T17:03:38.839Z,48.82
2022-10-06T17:06:08.999Z,49.75
2022-10-06T17:08:39.681Z,50.08
2022-10-06T17:11:16.883Z,50.67
2022-10-06T17:13:47.410Z,51.02
2022-10-06T17:16:18.572Z,51.39
2022-10-06T17:18:52.864Z,51.57
2022-10-06T17:21:44.098Z,51.90
2022-10-06T17:24:13.303Z,52.08
2022-10-06T17:26:42.457Z,52.63
2022-10-06T17:29:13.846Z,52.89
2022-10-06T17:31:43.342Z,53.11
2022-10-06T17:34:12.547Z,53.02
2022-10-06T17:36:41.302Z,53.30
2022-10-06T17:39:13.953Z,53.44
2022-10-06T17:41:42.711Z,53.46
2022-10-06T17:44:13.490Z,54.19
2022-10-06T17:46:42.750Z,54.23
2022-10-06T17:49:21.005Z,54.09
2022-10-06T17:52:01.581Z,54.45
2022-10-06T17:54:53.006Z,54.69
2022-10-06T17:57:21.173Z,54.67
2022-10-06T17:59:49.206Z,54.85
2022-10-06T18:02:17.289Z,54.82
2022-10-06T18:04:47.491Z,54.90
2022-10-06T18:07:19.340Z,55.07
2022-10-06T18:10:09.923Z,55.31
2022-10-06T18:12:50.801Z,55.41
2022-10-06T18:15:22.099Z,55.51
2022-10-06T18:17:53.403Z,55.44
2022-10-06T18:20:23.477Z,55.52
2022-10-06T18:22:51.588Z,55.58
2022-10-06T18:25:26.908Z,55.69
2022-10-06T18:27:55.290Z,55.65
2022-10-06T18:30:34.243Z,56.13
2022-10-06T18:37:25.810Z,56.42
2022-10-06T18:48:05.051Z,56.99
2022-10-06T18:51:14.307Z,56.97
2022-10-06T18:53:56.047Z,57.10
2022-10-06T18:56:33.632Z,57.08
2022-10-06T19:03:34.616Z,57.48
2022-10-06T19:06:02.718Z,57.39
2022-10-06T19:08:30.906Z,57.73
2022-10-06T19:11:29.910Z,57.76
2022-10-06T19:14:12.805Z,57.75
2022-10-06T19:16:41.147Z,57.87
2022-10-06T19:19:11.922Z,57.87
2022-10-06T19:21:50.246Z,58.10
2022-10-06T19:24:24.428Z,57.83
2022-10-06T19:26:57.531Z,58.09
2022-10-06T19:29:50.704Z,57.94
2022-10-06T19:32:25.705Z,58.11
2022-10-06T19:34:59.035Z,58.14
2022-10-06T19:37:28.429Z,58.44
2022-10-06T19:39:56.447Z,58.36
2022-10-06T19:45:47.877Z,58.59
2022-10-06T19:48:20.373Z,58.82
2022-10-06T19:50:52.214Z,58.58
2022-10-06T19:53:27.702Z,58.74
2022-10-06T19:56:02.126Z,58.70
2022-10-06T19:58:34.016Z,58.76
2022-10-06T20:01:07.627Z,58.65
2022-10-06T20:03:41.538Z,58.72
2022-10-06T20:06:12.444Z,58.65
2022-10-06T20:08:46.898Z,58.97
2022-10-06T20:11:29.457Z,58.93
2022-10-06T20:13:57.552Z,58.96
2022-10-06T20:16:25.801Z,59.04
2022-10-06T20:18:57.402Z,59.11
2022-10-06T20:21:31.238Z,59.13
2022-10-06T20:24:01.411Z,59.21
2022-10-06T20:26:35.268Z,59.01
2022-10-06T20:29:05.086Z,59.02
2022-10-06T20:31:44.883Z,59.07
2022-10-06T20:34:23.526Z,58.91
2022-10-06T20:36:55.944Z,58.98
2022-10-06T20:39:43.385Z,58.91
2022-10-06T20:42:15.140Z,58.88
2022-10-06T20:44:46.511Z,59.22
2022-10-06T20:47:16.482Z,59.30
2022-10-06T20:49:44.702Z,59.58
2022-10-06T20:53:02.918Z,59.72
2022-10-06T20:55:38.180Z,60.23
2022-10-06T21:01:22.076Z,60.35
2022-10-06T21:03:51.360Z,60.39
2022-10-06T21:06:20.717Z,60.39
2022-10-06T21:09:19.055Z,60.37
2022-10-06T21:11:47.611Z,60.35
2022-10-06T21:14:18.940Z,60.49
2022-10-06T21:16:49.884Z,60.34
2022-10-06T21:19:19.852Z,60.35
2022-10-06T21:21:52.390Z,60.60
2022-10-06T21:25:23.857Z,60.77
2022-10-06T21:27:56.631Z,60.98
2022-10-06T21:30:25.879Z,61.16
2022-10-06T21:32:53.917Z,61.08
2022-10-06T21:35:22.181Z,61.22
2022-10-06T21:37:54.130Z,61.07
2022-10-06T21:40:53.289Z,61.12
2022-10-06T21:43:28.982Z,60.88
2022-10-06T21:46:23.938Z,60.64
2022-10-06T21:48:53.422Z,60.66
2022-10-06T21:51:23.094Z,60.86
2022-10-06T21:53:59.060Z,61.15
2022-10-06T21:56:27.813Z,60.84
2022-10-06T21:59:00.962Z,60.72
2022-10-06T22:01:29.901Z,60.70
2022-10-06T22:04:21.894Z,60.59
2022-10-06T22:06:53.520Z,60.69
2022-10-06T22:09:23.223Z,60.68
2022-10-06T22:11:51.459Z,60.73
2022-10-06T22:14:22.423Z,60.92
2022-10-06T22:16:50.611Z,60.96
2022-10-06T22:19:21.744Z,60.97
2022-10-06T22:21:50.011Z,60.96
2022-10-06T22:24:21.751Z,60.90
2022-10-06T22:26:50.046Z,60.79
2022-10-06T22:29:28.666Z,60.90
2022-10-06T22:32:03.493Z,60.73
2022-10-06T22:34:39.042Z,60.83
2022-10-06T22:37:16.015Z,60.87
2022-10-06T22:39:44.306Z,60.77
2022-10-06T22:42:12.443Z,60.80
2022-10-06T22:44:43.287Z,60.75
2022-10-06T22:47:12.020Z,60.83
2022-10-06T22:49:40.039Z,60.77
2022-10-06T22:52:09.691Z,60.73
2022-10-06T22:54:38.271Z,60.85
2022-10-06T22:57:07.114Z,60.69
2022-10-06T22:59:35.222Z,60.78
2022-10-06T23:02:32.907Z,60.76
2022-10-06T23:05:03.400Z,60.78
2022-10-06T23:07:34.916Z,60.78
2022-10-06T23:10:02.938Z,60.76
2022-10-06T23:12:32.186Z,60.68
2022-10-06T23:15:02.116Z,60.74
2022-10-06T23:17:31.562Z,60.60
2022-10-06T23:20:01.213Z,60.80
2022-10-06T23:22:31.990Z,60.72
2022-10-06T23:25:00.041Z,60.62
2022-10-06T23:27:28.118Z,60.80
2022-10-06T23:29:56.176Z,60.66
2022-10-06T23:32:25.057Z,60.62
2022-10-06T23:34:54.201Z,60.66
2022-10-06T23:37:25.471Z,60.70
2022-10-06T23:39:58.730Z,60.67
2022-10-06T23:42:29.210Z,60.44
2022-10-06T23:44:57.280Z,60.33
2022-10-06T23:47:25.365Z,60.36
2022-10-06T23:49:54.285Z,60.52
2022-10-06T23:52:22.321Z,60.43
2022-10-06T23:54:50.269Z,60.66
2022-10-06T23:57:19.644Z,60.62
2022-10-06T23:59:47.592Z,60.72
